createdAt,value
2016-07-30T00:00:27.071Z,66.96
2016-07-30T00:01:44.946Z,66.98
2016-07-30T00:02:35.270Z,66.88
2016-07-30T00:03:35.978Z,66.85
2016-07-30T00:04:38.007Z,66.89
2016-07-30T00:05:32.810Z,66.92
2016-07-30T00:06:32.482Z,66.87
2016-07-30T00:07:15.975Z,66.85
2016-07-30T00:08:43.449Z,67.03
2016-07-30T00:09:27.591Z,67.15
2016-07-30T00:10:32.856Z,67.21
2016-07-30T00:11:33.407Z,67.30
2016-07-30T00:12:33.239Z,67.23
2016-07-30T00:13:26.084Z,67.21
2016-07-30T00:14:30.587Z,67.18
2016-07-30T00:15:34.196Z,67.29
2016-07-30T00:16:45.221Z,67.34
2016-07-30T00:17:30.747Z,67.50
2016-07-30T00:18:15.103Z,67.59
2016-07-30T00:19:38.594Z,67.61
2016-07-30T00:20:47.741Z,67.66
2016-07-30T00:21:26.616Z,67.69
2016-07-30T00:22:33.257Z,67.68
2016-07-30T00:23:31.377Z,67.64
2016-07-30T00:24:36.709Z,67.57
2016-07-30T00:25:36.922Z,67.53
2016-07-30T00:26:33.336Z,67.45
2016-07-30T00:27:29.007Z,67.45
2016-07-30T00:28:28.045Z,67.45
2016-07-30T00:29:13.258Z,67.51
2016-07-30T00:30:27.698Z,67.47
2016-07-30T00:31:39.031Z,67.46
2016-07-30T00:32:45.006Z,67.46
2016-07-30T00:33:32.622Z,67.55
2016-07-30T00:34:41.972Z,67.60
2016-07-30T00:35:48.025Z,67.62
2016-07-30T00:36:33.193Z,67.59
2016-07-30T00:37:27.398Z,67.51
2016-07-30T00:38:14.786Z,67.41
2016-07-30T00:39:27.801Z,67.40
2016-07-30T00:40:42.060Z,67.41
2016-07-30T00:41:13.208Z,67.49
2016-07-30T00:42:31.147Z,67.49
2016-07-30T00:43:27.645Z,67.58
2016-07-30T00:44:31.804Z,67.66
2016-07-30T00:45:44.293Z,67.82
2016-07-30T00:46:36.983Z,67.81
2016-07-30T00:47:33.909Z,67.91
2016-07-30T00:48:34.200Z,68.10
2016-07-30T00:49:39.304Z,68.06
2016-07-30T00:50:27.127Z,68.09
2016-07-30T00:51:21.632Z,68.03
2016-07-30T00:52:28.691Z,68.04
2016-07-30T00:53:31.466Z,68.04
2016-07-30T00:54:26.396Z,68.03
2016-07-30T00:55:31.655Z,67.99
2016-07-30T00:56:31.908Z,67.96
2016-07-30T00:57:38.225Z,67.89
2016-07-30T00:58:49.706Z,67.95
2016-07-30T00:59:22.039Z,67.94
2016-07-30T01:00:25.156Z,68.00
2016-07-30T01:01:33.776Z,67.97
2016-07-30T01:02:38.784Z,68.05
2016-07-30T01:03:45.207Z,68.05
2016-07-30T01:04:32.038Z,68.16
2016-07-30T01:05:31.396Z,68.24
2016-07-30T01:06:31.333Z,68.13
2016-07-30T01:07:28.664Z,68.10
2016-07-30T01:08:14.196Z,68.06
2016-07-30T01:09:21.710Z,68.05
2016-07-30T01:10:44.625Z,68.06
2016-07-30T01:11:42.476Z,68.12
2016-07-30T01:12:25.430Z,68.30
2016-07-30T01:13:39.763Z,68.50
2016-07-30T01:14:28.069Z,68.53
2016-07-30T01:15:21.726Z,68.49
2016-07-30T01:16:33.143Z,68.48
2016-07-30T01:17:31.364Z,68.47
2016-07-30T01:18:30.587Z,68.62
2016-07-30T01:19:45.143Z,68.53
2016-07-30T01:20:34.060Z,68.63
2016-07-30T01:21:16.898Z,68.69
2016-07-30T01:22:43.546Z,68.62
2016-07-30T01:23:33.337Z,68.69
2016-07-30T01:24:15.265Z,68.77
2016-07-30T01:25:13.112Z,68.64
2016-07-30T01:26:36.267Z,67.78
2016-07-30T01:27:27.113Z,67.68
2016-07-30T01:28:31.214Z,68.39
2016-07-30T01:29:26.421Z,68.62
2016-07-30T01:30:38.496Z,67.59
2016-07-30T01:31:30.494Z,67.36
2016-07-30T01:32:46.698Z,67.22
2016-07-30T01:33:43.523Z,67.42
2016-07-30T01:34:24.963Z,68.12
2016-07-30T01:35:15.435Z,68.12
2016-07-30T01:36:32.769Z,67.27
2016-07-30T01:37:42.974Z,67.19
2016-07-30T01:38:33.607Z,68.15
2016-07-30T01:39:33.410Z,68.36
2016-07-30T01:40:34.079Z,68.46
2016-07-30T01:41:34.701Z,68.43
2016-07-30T01:42:27.495Z,68.40
2016-07-30T01:43:46.683Z,68.43
2016-07-30T01:44:31.710Z,68.44
2016-07-30T01:45:36.517Z,68.47
2016-07-30T01:46:38.476Z,68.40
2016-07-30T01:47:42.826Z,68.42
2016-07-30T01:48:34.766Z,68.35
2016-07-30T01:49:21.172Z,68.34
2016-07-30T01:50:36.224Z,68.42
2016-07-30T01:51:36.322Z,68.45
2016-07-30T01:52:33.857Z,68.48
2016-07-30T01:53:38.336Z,68.60
2016-07-30T01:54:38.294Z,68.69
2016-07-30T01:55:36.789Z,68.70
2016-07-30T01:56:22.760Z,68.71
2016-07-30T01:57:15.104Z,68.75
2016-07-30T01:58:32.397Z,68.73
2016-07-30T01:59:38.116Z,68.76
2016-07-30T02:00:29.998Z,68.86
2016-07-30T02:01:31.039Z,68.82
2016-07-30T02:02:22.176Z,68.75
2016-07-30T02:03:31.160Z,67.87
2016-07-30T02:04:15.596Z,67.98
2016-07-30T02:05:14.718Z,68.69
2016-07-30T02:06:31.720Z,68.83
2016-07-30T02:07:39.555Z,68.97
2016-07-30T02:08:30.851Z,68.91
2016-07-30T02:09:33.809Z,69.23
2016-07-30T02:10:42.251Z,68.01
2016-07-30T02:11:31.446Z,68.26
2016-07-30T02:12:37.063Z,68.83
2016-07-30T02:13:33.084Z,68.93
2016-07-30T02:14:37.928Z,69.01
2016-07-30T02:15:34.976Z,69.01
2016-07-30T02:16:30.688Z,69.08
2016-07-30T02:17:38.669Z,69.24
2016-07-30T02:18:29.820Z,69.37
2016-07-30T02:19:33.569Z,69.42
2016-07-30T02:20:15.708Z,69.42
2016-07-30T02:21:27.616Z,69.31
2016-07-30T02:22:38.318Z,69.35
2016-07-30T02:23:33.729Z,69.42
2016-07-30T02:24:34.056Z,69.44
2016-07-30T02:25:31.395Z,69.50
2016-07-30T02:26:28.237Z,69.57
2016-07-30T02:27:27.834Z,69.46
2016-07-30T02:28:34.555Z,69.43
2016-07-30T02:29:36.597Z,69.49
2016-07-30T02:30:30.818Z,69.61
2016-07-30T02:31:34.300Z,69.68
2016-07-30T02:32:37.813Z,69.61
2016-07-30T02:33:33.137Z,69.65
2016-07-30T02:34:37.367Z,68.53
2016-07-30T02:35:32.124Z,69.28
2016-07-30T02:36:30.915Z,69.34
2016-07-30T02:37:37.821Z,69.40
2016-07-30T02:38:41.386Z,69.58
2016-07-30T02:39:22.569Z,69.58
2016-07-30T02:40:15.774Z,69.63
2016-07-30T02:41:43.893Z,69.54
2016-07-30T02:42:29.246Z,69.50
2016-07-30T02:43:31.511Z,69.54
2016-07-30T02:44:36.686Z,69.56
2016-07-30T02:45:31.391Z,69.56
2016-07-30T02:46:26.020Z,69.60
2016-07-30T02:47:33.396Z,69.72
2016-07-30T02:48:33.005Z,69.81
2016-07-30T02:49:36.204Z,69.94
2016-07-30T02:50:27.103Z,69.92
2016-07-30T02:51:28.731Z,69.97
2016-07-30T02:52:40.442Z,70.00
2016-07-30T02:53:33.518Z,70.00
2016-07-30T02:54:35.109Z,69.98
2016-07-30T02:55:36.735Z,69.95
2016-07-30T02:56:30.077Z,69.88
2016-07-30T02:57:33.636Z,70.03
2016-07-30T02:58:37.098Z,69.98
2016-07-30T02:59:36.215Z,70.06
2016-07-30T03:00:32.920Z,70.26
2016-07-30T03:01:31.912Z,70.21
2016-07-30T03:02:38.694Z,70.21
2016-07-30T03:03:32.711Z,70.20
2016-07-30T03:04:32.772Z,70.24
2016-07-30T03:05:30.217Z,70.19
2016-07-30T03:06:30.243Z,70.19
2016-07-30T03:08:31.714Z,70.29
2016-07-30T03:09:40.938Z,70.43
2016-07-30T03:10:34.128Z,70.40
2016-07-30T03:11:32.913Z,70.43
2016-07-30T03:12:32.828Z,70.34
2016-07-30T03:13:34.839Z,70.30
2016-07-30T03:14:27.500Z,70.28
2016-07-30T03:15:31.999Z,70.29
2016-07-30T03:16:37.284Z,70.30
2016-07-30T03:17:20.789Z,70.44
2016-07-30T03:18:31.303Z,69.30
2016-07-30T03:19:37.401Z,69.03
2016-07-30T03:20:22.624Z,69.05
2016-07-30T03:21:33.130Z,68.92
2016-07-30T03:22:49.379Z,68.89
2016-07-30T03:23:33.453Z,68.88
2016-07-30T03:24:35.322Z,68.81
2016-07-30T03:25:34.772Z,68.71
2016-07-30T03:26:26.344Z,68.70
2016-07-30T03:27:33.403Z,68.76
2016-07-30T03:28:33.919Z,68.76
2016-07-30T03:29:36.716Z,68.79
2016-07-30T03:30:32.837Z,68.74
2016-07-30T03:31:35.053Z,68.81
2016-07-30T03:32:34.461Z,68.91
2016-07-30T03:33:31.633Z,69.00
2016-07-30T03:34:32.786Z,69.97
2016-07-30T03:35:32.572Z,70.27
2016-07-30T03:36:27.659Z,70.35
2016-07-30T03:37:45.167Z,70.35
2016-07-30T03:38:21.641Z,70.34
2016-07-30T03:39:31.783Z,69.43
2016-07-30T03:40:27.220Z,69.56
2016-07-30T03:41:21.016Z,70.22
2016-07-30T03:42:37.504Z,70.44
2016-07-30T03:43:47.045Z,70.51
2016-07-30T03:44:33.975Z,70.53
2016-07-30T03:45:23.911Z,70.66
2016-07-30T03:46:33.804Z,70.66
2016-07-30T03:47:35.702Z,70.77
2016-07-30T03:48:37.706Z,70.79
2016-07-30T03:49:33.634Z,70.87
2016-07-30T03:50:32.658Z,70.83
2016-07-30T03:51:30.315Z,70.83
2016-07-30T03:52:33.900Z,70.78
2016-07-30T03:53:44.653Z,70.81
2016-07-30T03:54:23.075Z,70.78
2016-07-30T03:55:29.813Z,70.77
2016-07-30T03:56:15.648Z,70.84
2016-07-30T03:57:33.456Z,70.84
2016-07-30T03:58:33.874Z,70.85
2016-07-30T03:59:37.234Z,70.87
2016-07-30T04:00:33.196Z,71.03
2016-07-30T04:01:31.126Z,71.08
2016-07-30T04:02:27.104Z,71.17
2016-07-30T04:03:27.415Z,71.16
2016-07-30T04:04:27.910Z,69.96
2016-07-30T04:05:27.800Z,69.85
2016-07-30T04:06:26.766Z,69.77
2016-07-30T04:07:34.040Z,69.73
2016-07-30T04:08:35.155Z,69.83
2016-07-30T04:09:31.657Z,70.16
2016-07-30T04:10:31.678Z,71.21
2016-07-30T04:11:34.681Z,71.43
2016-07-30T04:12:25.649Z,71.54
2016-07-30T04:13:32.448Z,71.49
2016-07-30T04:14:39.011Z,71.49
2016-07-30T04:15:31.046Z,71.42
2016-07-30T04:16:32.519Z,71.39
2016-07-30T04:17:43.273Z,71.48
2016-07-30T04:18:21.935Z,71.48
2016-07-30T04:19:29.555Z,71.51
2016-07-30T04:20:57.132Z,71.54
2016-07-30T04:21:44.916Z,71.54
2016-07-30T04:22:29.915Z,71.46
2016-07-30T04:23:31.318Z,71.46
2016-07-30T04:24:29.928Z,71.40
2016-07-30T04:25:26.594Z,71.53
2016-07-30T04:26:21.734Z,71.50
2016-07-30T04:27:20.017Z,70.72
2016-07-30T04:28:29.657Z,71.36
2016-07-30T04:29:27.780Z,71.49
2016-07-30T04:30:38.936Z,71.52
2016-07-30T04:31:28.930Z,71.59
2016-07-30T04:32:25.376Z,71.65
2016-07-30T04:33:30.367Z,71.67
2016-07-30T04:34:41.063Z,71.61
2016-07-30T04:35:14.870Z,71.70
2016-07-30T04:36:38.069Z,71.84
2016-07-30T04:37:28.227Z,71.95
2016-07-30T04:38:34.266Z,71.92
2016-07-30T04:39:32.632Z,71.96
2016-07-30T04:40:38.376Z,72.06
2016-07-30T04:41:34.414Z,70.81
2016-07-30T04:42:32.145Z,70.54
2016-07-30T04:43:39.847Z,70.29
2016-07-30T04:44:30.586Z,70.34
2016-07-30T04:45:25.901Z,70.33
2016-07-30T04:46:32.346Z,70.53
2016-07-30T04:47:32.915Z,71.17
2016-07-30T04:48:33.919Z,71.34
2016-07-30T04:49:31.727Z,71.42
2016-07-30T04:50:34.228Z,71.45
2016-07-30T04:51:33.807Z,71.48
2016-07-30T04:52:44.835Z,71.72
2016-07-30T04:53:37.775Z,71.61
2016-07-30T04:54:29.235Z,71.47
2016-07-30T04:55:28.217Z,71.41
2016-07-30T04:56:36.648Z,71.40
2016-07-30T04:57:36.931Z,71.43
2016-07-30T04:58:37.233Z,71.34
2016-07-30T04:59:38.156Z,71.43
2016-07-30T05:00:35.346Z,71.39
2016-07-30T05:01:50.667Z,71.43
2016-07-30T05:02:33.967Z,71.45
2016-07-30T05:03:24.354Z,71.41
2016-07-30T05:04:30.931Z,71.49
2016-07-30T05:05:33.185Z,71.40
2016-07-30T05:06:32.397Z,71.52
2016-07-30T05:07:32.460Z,71.56
2016-07-30T05:08:38.255Z,71.73
2016-07-30T05:09:38.250Z,71.66
2016-07-30T05:10:37.306Z,71.55
2016-07-30T05:11:27.821Z,71.44
2016-07-30T05:12:31.756Z,71.43
2016-07-30T05:13:28.131Z,71.62
2016-07-30T05:14:38.545Z,71.65
2016-07-30T05:15:32.813Z,71.70
2016-07-30T05:16:27.398Z,71.39
2016-07-30T05:17:36.343Z,71.42
2016-07-30T05:18:43.467Z,71.49
2016-07-30T05:19:33.349Z,71.43
2016-07-30T05:20:28.082Z,71.53
2016-07-30T05:21:30.318Z,71.75
2016-07-30T05:22:34.031Z,71.70
2016-07-30T05:23:26.084Z,71.81
2016-07-30T05:24:14.551Z,71.73
2016-07-30T05:25:38.205Z,71.70
2016-07-30T05:26:33.056Z,71.66
2016-07-30T05:27:23.809Z,71.73
2016-07-30T05:28:30.810Z,71.89
2016-07-30T05:29:32.921Z,72.47
2016-07-30T05:30:31.745Z,72.30
2016-07-30T05:31:32.492Z,72.05
2016-07-30T05:32:31.995Z,71.93
2016-07-30T05:33:37.228Z,71.69
2016-07-30T05:34:33.861Z,71.51
2016-07-30T05:35:33.759Z,71.47
2016-07-30T05:36:28.044Z,71.57
2016-07-30T05:37:28.010Z,71.61
2016-07-30T05:38:33.339Z,71.04
2016-07-30T05:39:27.847Z,71.40
2016-07-30T05:40:36.232Z,71.27
2016-07-30T05:41:28.832Z,71.16
2016-07-30T05:42:33.354Z,71.27
2016-07-30T05:43:32.612Z,71.43
2016-07-30T05:44:34.929Z,71.32
2016-07-30T05:45:28.250Z,71.25
2016-07-30T05:46:22.747Z,71.15
2016-07-30T05:47:32.132Z,71.48
2016-07-30T05:48:26.566Z,71.58
2016-07-30T05:49:31.447Z,70.37
2016-07-30T05:50:41.171Z,70.10
2016-07-30T05:51:28.981Z,70.24
2016-07-30T05:52:26.138Z,70.90
2016-07-30T05:53:28.730Z,70.97
2016-07-30T05:54:32.067Z,71.02
2016-07-30T05:55:27.185Z,71.00
2016-07-30T05:56:38.960Z,71.07
2016-07-30T05:57:33.459Z,71.18
2016-07-30T05:58:13.666Z,70.97
2016-07-30T05:59:31.795Z,70.02
2016-07-30T06:00:45.363Z,69.93
2016-07-30T06:01:37.006Z,70.05
2016-07-30T06:02:20.226Z,70.80
2016-07-30T06:03:21.680Z,70.74
2016-07-30T06:04:29.663Z,70.14
2016-07-30T06:05:34.290Z,70.53
2016-07-30T06:06:38.220Z,70.71
2016-07-30T06:07:15.644Z,70.63
2016-07-30T06:08:38.646Z,70.71
2016-07-30T06:09:16.817Z,70.74
2016-07-30T06:10:32.702Z,70.67
2016-07-30T06:11:33.668Z,70.76
2016-07-30T06:12:28.516Z,70.67
2016-07-30T06:13:45.195Z,70.53
2016-07-30T06:14:31.916Z,70.44
2016-07-30T06:15:34.371Z,70.48
2016-07-30T06:16:21.097Z,70.66
2016-07-30T06:17:36.679Z,70.67
2016-07-30T06:18:16.647Z,70.46
2016-07-30T06:19:29.574Z,70.33
2016-07-30T06:20:33.169Z,70.19
2016-07-30T06:21:13.875Z,70.36
2016-07-30T06:22:40.623Z,70.37
2016-07-30T06:23:15.526Z,70.35
2016-07-30T06:24:38.327Z,70.39
2016-07-30T06:25:13.738Z,70.30
2016-07-30T06:26:30.998Z,70.62
2016-07-30T06:27:16.491Z,70.51
2016-07-30T06:28:47.002Z,70.66
2016-07-30T06:29:33.346Z,70.53
2016-07-30T06:30:21.238Z,70.71
2016-07-30T06:31:50.390Z,70.60
2016-07-30T06:32:12.932Z,70.29
2016-07-30T06:33:33.343Z,70.22
2016-07-30T06:34:37.312Z,70.13
2016-07-30T06:35:35.591Z,70.41
2016-07-30T06:36:46.994Z,70.26
2016-07-30T06:37:44.297Z,70.10
2016-07-30T06:38:13.327Z,70.02
2016-07-30T06:39:49.935Z,69.91
2016-07-30T06:40:32.998Z,70.03
2016-07-30T06:41:32.822Z,70.39
2016-07-30T06:42:39.019Z,70.29
2016-07-30T06:43:22.569Z,70.30
2016-07-30T06:44:33.831Z,70.38
2016-07-30T06:45:37.845Z,69.94
2016-07-30T06:46:39.106Z,70.09
2016-07-30T06:47:30.882Z,70.14
2016-07-30T06:48:44.762Z,70.19
2016-07-30T06:49:40.483Z,70.05
2016-07-30T06:50:33.707Z,70.07
2016-07-30T06:51:34.668Z,69.78
2016-07-30T06:52:13.013Z,70.02
2016-07-30T06:53:15.126Z,70.28
2016-07-30T06:54:38.375Z,70.33
2016-07-30T06:55:27.099Z,70.12
2016-07-30T06:56:13.144Z,70.22
2016-07-30T06:57:26.753Z,69.55
2016-07-30T06:58:14.295Z,70.18
2016-07-30T06:59:26.578Z,70.14
2016-07-30T07:00:49.097Z,69.98
2016-07-30T07:01:13.991Z,70.40
2016-07-30T07:02:32.341Z,70.15
2016-07-30T07:03:34.331Z,70.07
2016-07-30T07:04:38.005Z,70.16
2016-07-30T07:05:32.307Z,70.14
2016-07-30T07:06:20.072Z,70.32
2016-07-30T07:07:40.302Z,70.20
2016-07-30T07:09:34.750Z,70.11
2016-07-30T07:10:28.061Z,70.05
2016-07-30T07:11:28.291Z,70.16
2016-07-30T07:12:27.595Z,70.07
2016-07-30T07:13:37.056Z,70.24
2016-07-30T07:14:26.568Z,70.21
2016-07-30T07:15:13.328Z,70.12
2016-07-30T07:16:32.576Z,70.20
2016-07-30T07:17:29.778Z,70.42
2016-07-30T07:18:33.005Z,70.50
2016-07-30T07:19:40.320Z,70.40
2016-07-30T07:20:13.578Z,70.45
2016-07-30T07:21:30.757Z,70.22
2016-07-30T07:22:34.155Z,70.22
2016-07-30T07:23:13.152Z,70.12
2016-07-30T07:24:44.506Z,70.05
2016-07-30T07:25:20.512Z,69.78
2016-07-30T07:26:28.607Z,69.60
2016-07-30T07:27:33.468Z,69.55
2016-07-30T07:28:35.497Z,69.38
2016-07-30T07:29:36.367Z,69.37
2016-07-30T07:30:14.172Z,69.29
2016-07-30T07:31:13.844Z,69.30
2016-07-30T07:32:36.708Z,69.31
2016-07-30T07:33:38.487Z,69.19
2016-07-30T07:34:33.148Z,69.38
2016-07-30T07:35:28.298Z,69.31
2016-07-30T07:36:20.104Z,68.89
2016-07-30T07:37:30.260Z,68.73
2016-07-30T07:39:37.651Z,68.07
2016-07-30T07:40:31.999Z,68.14
2016-07-30T07:41:41.014Z,67.80
2016-07-30T07:42:38.186Z,67.71
2016-07-30T07:43:39.364Z,67.33
2016-07-30T07:44:36.968Z,67.42
2016-07-30T07:45:38.950Z,67.36
2016-07-30T07:46:28.439Z,67.16
2016-07-30T07:47:34.309Z,67.22
2016-07-30T07:48:13.085Z,67.31
2016-07-30T07:49:42.325Z,67.07
2016-07-30T07:50:40.251Z,66.32
2016-07-30T07:51:33.447Z,66.33
2016-07-30T07:52:09.971Z,66.42
2016-07-30T07:54:38.007Z,66.40
2016-07-30T07:55:37.880Z,66.59
2016-07-30T07:56:14.556Z,66.43
2016-07-30T07:57:38.626Z,66.51
2016-07-30T07:58:16.118Z,66.56
2016-07-30T07:59:26.722Z,66.43
2016-07-30T08:00:38.434Z,66.41
2016-07-30T08:01:38.461Z,66.19
2016-07-30T08:02:36.580Z,66.06
2016-07-30T08:03:34.751Z,66.01
2016-07-30T08:04:37.032Z,66.06
2016-07-30T08:05:32.688Z,66.18
2016-07-30T08:06:18.011Z,66.15
2016-07-30T08:07:33.287Z,66.13
2016-07-30T08:08:45.921Z,66.45
2016-07-30T08:09:31.913Z,66.99
2016-07-30T08:10:44.732Z,67.25
2016-07-30T08:11:38.842Z,67.48
2016-07-30T08:12:15.395Z,67.68
2016-07-30T08:13:12.515Z,67.72
2016-07-30T08:14:36.687Z,67.68
2016-07-30T08:15:20.134Z,67.62
2016-07-30T08:16:36.049Z,67.36
2016-07-30T08:17:28.742Z,67.43
2016-07-30T08:18:45.130Z,67.54
2016-07-30T08:19:16.599Z,67.65
2016-07-30T08:20:35.070Z,67.78
2016-07-30T08:21:30.807Z,67.84
2016-07-30T08:22:37.469Z,67.85
2016-07-30T08:23:38.172Z,67.87
2016-07-30T08:24:28.696Z,67.93
2016-07-30T08:25:32.924Z,67.95
2016-07-30T08:26:32.779Z,68.02
2016-07-30T08:27:46.431Z,68.07
2016-07-30T08:28:33.691Z,68.11
2016-07-30T08:29:34.415Z,68.15
2016-07-30T08:30:33.789Z,68.17
2016-07-30T08:31:37.459Z,68.22
2016-07-30T08:32:13.668Z,68.23
2016-07-30T08:33:33.024Z,68.24
2016-07-30T08:34:36.868Z,68.29
2016-07-30T08:35:38.080Z,68.28
2016-07-30T08:36:33.700Z,68.29
2016-07-30T08:37:12.861Z,68.34
2016-07-30T08:38:46.117Z,68.40
2016-07-30T08:39:43.556Z,68.37
2016-07-30T08:40:44.791Z,68.39
2016-07-30T08:41:12.030Z,67.52
2016-07-30T08:42:16.487Z,68.15
2016-07-30T08:43:36.990Z,68.25
2016-07-30T08:44:25.561Z,68.32
2016-07-30T08:45:37.348Z,68.17
2016-07-30T08:46:33.860Z,68.30
2016-07-30T08:47:45.048Z,68.31
2016-07-30T08:48:11.240Z,68.28
2016-07-30T08:49:16.177Z,68.23
2016-07-30T08:50:21.954Z,68.24
2016-07-30T08:51:32.653Z,68.21
2016-07-30T08:52:13.344Z,68.20
2016-07-30T08:53:13.294Z,67.32
2016-07-30T08:54:27.018Z,67.14
2016-07-30T08:55:13.273Z,67.11
2016-07-30T08:56:40.444Z,68.12
2016-07-30T08:57:34.252Z,68.35
2016-07-30T08:58:13.014Z,68.51
2016-07-30T08:59:35.354Z,68.54
2016-07-30T09:00:28.195Z,68.62
2016-07-30T09:01:20.598Z,68.61
2016-07-30T09:02:31.893Z,68.54
2016-07-30T09:03:16.680Z,68.61
2016-07-30T09:04:37.357Z,68.77
2016-07-30T09:05:26.218Z,68.77
2016-07-30T09:06:32.755Z,68.79
2016-07-30T09:07:44.598Z,68.77
2016-07-30T09:08:13.227Z,68.83
2016-07-30T09:09:32.782Z,68.83
2016-07-30T09:10:16.635Z,68.65
2016-07-30T09:11:34.974Z,68.67
2016-07-30T09:12:39.439Z,68.65
2016-07-30T09:13:20.915Z,68.59
2016-07-30T09:14:20.992Z,68.59
2016-07-30T09:15:32.435Z,68.61
2016-07-30T09:16:31.483Z,68.68
2016-07-30T09:17:32.714Z,68.59
2016-07-30T09:18:14.053Z,68.75
2016-07-30T09:19:15.794Z,68.69
2016-07-30T09:20:13.171Z,68.67
2016-07-30T09:21:13.176Z,68.74
2016-07-30T09:22:14.721Z,68.69
2016-07-30T09:23:14.746Z,68.68
2016-07-30T09:25:14.820Z,68.74
2016-07-30T09:26:11.755Z,68.74
2016-07-30T09:27:13.591Z,67.81
2016-07-30T09:28:12.779Z,68.50
2016-07-30T09:29:13.690Z,68.61
2016-07-30T09:30:16.208Z,68.68
2016-07-30T09:31:12.936Z,68.71
2016-07-30T09:32:14.152Z,68.71
2016-07-30T09:33:12.637Z,68.71
2016-07-30T09:34:13.665Z,68.80
2016-07-30T09:35:19.359Z,68.89
2016-07-30T09:36:15.767Z,68.77
2016-07-30T09:37:13.072Z,68.92
2016-07-30T09:38:12.947Z,68.96
2016-07-30T09:40:15.836Z,68.95
2016-07-30T09:41:16.506Z,68.98
2016-07-30T09:42:13.026Z,69.01
2016-07-30T09:43:27.893Z,69.04
2016-07-30T09:44:38.150Z,68.95
2016-07-30T09:45:40.354Z,69.08
2016-07-30T09:46:21.127Z,69.13
2016-07-30T09:47:33.237Z,69.15
2016-07-30T09:48:29.739Z,69.13
2016-07-30T09:49:14.213Z,69.15
2016-07-30T09:50:33.061Z,69.23
2016-07-30T09:51:12.260Z,69.20
2016-07-30T09:52:35.059Z,68.58
2016-07-30T09:53:38.612Z,69.01
2016-07-30T09:54:30.208Z,69.24
2016-07-30T09:55:33.860Z,69.12
2016-07-30T09:56:14.026Z,69.25
2016-07-30T09:57:12.873Z,69.13
2016-07-30T09:58:13.044Z,69.22
2016-07-30T09:59:14.942Z,69.19
2016-07-30T10:00:31.886Z,69.11
2016-07-30T10:01:26.874Z,69.10
2016-07-30T10:02:25.385Z,69.12
2016-07-30T10:03:28.120Z,69.07
2016-07-30T10:04:31.281Z,68.98
2016-07-30T10:05:23.114Z,68.91
2016-07-30T10:06:12.052Z,68.95
2016-07-30T10:07:13.142Z,67.86
2016-07-30T10:08:37.822Z,67.61
2016-07-30T10:09:33.850Z,68.49
2016-07-30T10:10:14.008Z,68.58
2016-07-30T10:11:22.053Z,67.77
2016-07-30T10:12:19.113Z,67.58
2016-07-30T10:13:44.553Z,67.54
2016-07-30T10:14:34.270Z,67.48
2016-07-30T10:15:37.907Z,67.42
2016-07-30T10:16:12.338Z,67.40
2016-07-30T10:17:27.864Z,68.39
2016-07-30T10:18:19.049Z,68.65
2016-07-30T10:19:25.489Z,68.68
2016-07-30T10:20:26.521Z,68.68
2016-07-30T10:21:33.960Z,68.64
2016-07-30T10:22:37.228Z,68.59
2016-07-30T10:23:12.278Z,68.58
2016-07-30T10:24:14.341Z,68.53
2016-07-30T10:25:19.019Z,68.48
2016-07-30T10:26:37.919Z,68.42
2016-07-30T10:27:37.240Z,68.36
2016-07-30T10:28:21.871Z,68.27
2016-07-30T10:29:35.023Z,68.31
2016-07-30T10:30:37.338Z,68.34
2016-07-30T10:31:15.106Z,68.36
2016-07-30T10:32:25.697Z,68.44
2016-07-30T10:33:28.853Z,68.40
2016-07-30T10:34:13.417Z,68.33
2016-07-30T10:35:33.750Z,68.34
2016-07-30T10:36:48.039Z,68.48
2016-07-30T10:37:25.693Z,68.40
2016-07-30T10:38:14.460Z,68.40
2016-07-30T10:39:16.162Z,68.36
2016-07-30T10:40:34.774Z,67.40
2016-07-30T10:41:33.454Z,68.26
2016-07-30T10:42:27.091Z,68.35
2016-07-30T10:43:29.304Z,68.38
2016-07-30T10:44:26.945Z,68.40
2016-07-30T10:45:17.275Z,68.42
2016-07-30T10:46:17.524Z,68.57
2016-07-30T10:47:12.725Z,68.48
2016-07-30T10:48:34.865Z,68.35
2016-07-30T10:49:32.933Z,68.49
2016-07-30T10:50:32.660Z,68.44
2016-07-30T10:51:22.183Z,68.44
2016-07-30T10:52:28.574Z,68.37
2016-07-30T10:53:15.598Z,68.31
2016-07-30T10:54:14.827Z,68.36
2016-07-30T10:55:27.001Z,68.35
2016-07-30T10:56:31.712Z,68.35
2016-07-30T10:57:38.501Z,68.35
2016-07-30T10:58:33.678Z,68.29
2016-07-30T10:59:38.030Z,68.25
2016-07-30T11:00:33.031Z,68.34
2016-07-30T11:01:14.905Z,68.29
2016-07-30T11:02:14.656Z,68.34
2016-07-30T11:03:33.680Z,68.16
2016-07-30T11:04:14.557Z,68.34
2016-07-30T11:05:12.679Z,68.33
2016-07-30T11:06:29.256Z,68.34
2016-07-30T11:07:37.956Z,68.36
2016-07-30T11:08:20.723Z,68.39
2016-07-30T11:09:24.998Z,68.40
2016-07-30T11:10:35.397Z,68.34
2016-07-30T11:11:37.771Z,68.34
2016-07-30T11:12:13.841Z,68.41
2016-07-30T11:13:28.000Z,68.44
2016-07-30T11:14:25.878Z,68.52
2016-07-30T11:15:39.137Z,68.56
2016-07-30T11:16:32.442Z,68.62
2016-07-30T11:17:20.478Z,67.50
2016-07-30T11:18:31.049Z,68.48
2016-07-30T11:19:38.373Z,68.52
2016-07-30T11:20:15.402Z,68.59
2016-07-30T11:21:33.532Z,68.53
2016-07-30T11:22:30.460Z,68.29
2016-07-30T11:23:12.767Z,68.52
2016-07-30T11:24:14.966Z,68.60
2016-07-30T11:25:32.043Z,68.69
2016-07-30T11:26:29.375Z,68.77
2016-07-30T11:27:31.567Z,68.80
2016-07-30T11:28:15.708Z,68.71
2016-07-30T11:29:15.312Z,68.74
2016-07-30T11:30:45.660Z,68.75
2016-07-30T11:31:19.314Z,68.70
2016-07-30T11:32:13.315Z,68.66
2016-07-30T11:33:32.604Z,68.61
2016-07-30T11:34:38.219Z,68.65
2016-07-30T11:35:10.861Z,68.62
2016-07-30T11:36:12.704Z,68.61
2016-07-30T11:37:38.938Z,68.33
2016-07-30T11:38:25.740Z,67.32
2016-07-30T11:40:12.657Z,67.16
2016-07-30T11:41:15.045Z,68.07
2016-07-30T11:42:19.367Z,68.32
2016-07-30T11:43:33.970Z,68.44
2016-07-30T11:44:14.349Z,68.56
2016-07-30T11:45:16.317Z,68.59
2016-07-30T11:46:34.897Z,68.55
2016-07-30T11:47:33.542Z,68.54
2016-07-30T11:48:22.904Z,67.40
2016-07-30T11:49:49.082Z,67.14
2016-07-30T11:50:38.917Z,67.14
2016-07-30T11:51:31.018Z,67.92
2016-07-30T11:52:34.116Z,68.09
2016-07-30T11:53:38.101Z,68.15
2016-07-30T11:54:13.661Z,68.16
2016-07-30T11:55:26.900Z,68.17
2016-07-30T11:56:23.370Z,68.13
2016-07-30T11:57:13.470Z,68.11
2016-07-30T11:58:26.465Z,68.11
2016-07-30T11:59:33.292Z,66.99
2016-07-30T12:00:28.798Z,67.81
2016-07-30T12:01:32.860Z,67.77
2016-07-30T12:02:37.726Z,67.97
2016-07-30T12:03:13.450Z,67.85
2016-07-30T12:04:28.744Z,67.81
2016-07-30T12:05:32.858Z,67.76
2016-07-30T12:06:16.665Z,67.78
2016-07-30T12:07:17.854Z,67.77
2016-07-30T12:08:25.738Z,67.81
2016-07-30T12:09:27.286Z,67.85
2016-07-30T12:10:26.299Z,67.67
2016-07-30T12:11:30.868Z,67.16
2016-07-30T12:12:29.389Z,67.61
2016-07-30T12:13:32.382Z,67.70
2016-07-30T12:14:29.567Z,67.75
2016-07-30T12:15:14.341Z,67.76
2016-07-30T12:16:12.929Z,67.76
2016-07-30T12:17:40.304Z,67.73
2016-07-30T12:18:31.017Z,67.71
2016-07-30T12:19:37.857Z,67.67
2016-07-30T12:20:13.736Z,67.62
2016-07-30T12:21:33.686Z,67.63
2016-07-30T12:22:32.472Z,67.61
2016-07-30T12:23:43.558Z,67.59
2016-07-30T12:24:17.928Z,67.61
2016-07-30T12:25:34.257Z,67.57
2016-07-30T12:26:27.819Z,67.55
2016-07-30T12:27:32.732Z,67.56
2016-07-30T12:28:28.736Z,67.55
2016-07-30T12:29:13.776Z,67.53
2016-07-30T12:30:22.803Z,67.53
2016-07-30T12:31:32.963Z,67.48
2016-07-30T12:32:15.766Z,67.48
2016-07-30T12:33:13.197Z,67.46
2016-07-30T12:34:12.249Z,67.45
2016-07-30T12:35:13.052Z,67.46
2016-07-30T12:36:22.014Z,67.49
2016-07-30T12:37:18.877Z,67.48
2016-07-30T12:38:32.771Z,67.52
2016-07-30T12:39:23.008Z,66.45
2016-07-30T12:40:33.127Z,66.60
2016-07-30T12:41:32.802Z,67.17
2016-07-30T12:42:19.537Z,67.31
2016-07-30T12:43:13.135Z,67.39
2016-07-30T12:44:13.820Z,67.41
2016-07-30T12:45:13.014Z,67.38
2016-07-30T12:46:12.627Z,67.37
2016-07-30T12:47:14.534Z,67.41
2016-07-30T12:48:15.236Z,67.34
2016-07-30T12:49:38.235Z,67.30
2016-07-30T12:50:12.840Z,67.31
2016-07-30T12:51:13.597Z,67.30
2016-07-30T12:52:37.599Z,67.31
2016-07-30T12:53:35.572Z,67.30
2016-07-30T12:54:19.658Z,67.28
2016-07-30T12:55:17.463Z,67.31
2016-07-30T12:56:17.325Z,67.25
2016-07-30T12:57:38.240Z,67.21
2016-07-30T12:58:44.035Z,67.20
2016-07-30T12:59:15.674Z,67.21